createdAt,value
2022-09-01T00:01:48.768Z,96113.28
2022-09-01T00:04:21.281Z,96147.22
2022-09-01T00:06:50.752Z,96157.03
2022-09-01T00:09:21.361Z,96123.22
2022-09-01T00:11:53.619Z,96137.06
2022-09-01T00:14:30.136Z,96102.44
2022-09-01T00:17:00.507Z,96139.03
2022-09-01T00:19:30.696Z,96155.88
2022-09-01T00:21:59.224Z,96134.47
2022-09-01T00:24:28.888Z,96127.19
2022-09-01T00:26:57.529Z,96135.34
2022-09-01T00:29:27.250Z,96140.53
2022-09-01T00:31:55.837Z,96127.03
2022-09-01T00:34:24.827Z,96127.59
2022-09-01T00:36:54.900Z,96130.38
2022-09-01T00:39:23.579Z,96126.91
2022-09-01T00:41:52.217Z,96131.00
2022-09-01T00:44:24.705Z,96128.88
2022-09-01T00:46:57.786Z,96098.94
2022-09-01T00:49:31.621Z,96124.59
2022-09-01T00:52:08.613Z,96108.22
2022-09-01T00:54:41.094Z,96121.97
2022-09-01T00:57:12.875Z,96126.88
2022-09-01T00:59:47.951Z,96119.31
2022-09-01T01:02:17.003Z,96115.09
2022-09-01T01:04:46.445Z,96124.78
2022-09-01T01:07:17.417Z,96128.06
2022-09-01T01:09:48.103Z,96076.31
2022-09-01T01:12:17.690Z,96120.50
2022-09-01T01:14:50.678Z,96113.44
2022-09-01T01:17:19.941Z,96103.84
2022-09-01T01:20:07.750Z,96113.75
2022-09-01T01:23:02.464Z,96074.22
2022-09-01T01:25:34.660Z,96117.13
2022-09-01T01:28:13.605Z,96119.34
2022-09-01T01:30:44.597Z,96122.94
2022-09-01T01:33:13.708Z,96098.72
2022-09-01T01:35:43.902Z,96117.53
2022-09-01T01:38:12.835Z,96132.44
2022-09-01T01:40:43.432Z,96047.59
2022-09-01T01:43:20.227Z,96127.88
2022-09-01T01:45:52.269Z,96126.06
2022-09-01T01:48:23.045Z,96028.69
2022-09-01T01:50:52.793Z,96114.91
2022-09-01T01:53:22.007Z,96110.16
2022-09-01T01:55:52.055Z,96123.66
2022-09-01T01:58:22.631Z,96118.78
2022-09-01T02:00:52.568Z,96124.22
2022-09-01T02:03:25.290Z,96122.28
2022-09-01T02:05:55.483Z,96125.59
2022-09-01T02:08:27.029Z,96119.09
2022-09-01T02:10:57.988Z,96113.00
2022-09-01T02:13:31.536Z,96094.09
2022-09-01T02:16:03.428Z,96125.91
2022-09-01T02:18:36.248Z,96124.88
2022-09-01T02:21:15.023Z,96121.66
2022-09-01T02:23:45.025Z,96084.69
2022-09-01T02:26:17.716Z,96094.19
2022-09-01T02:28:54.851Z,96031.03
2022-09-01T02:31:24.860Z,96116.59
2022-09-01T02:33:54.630Z,96122.25
2022-09-01T02:36:25.440Z,96111.97
2022-09-01T02:38:56.853Z,96123.66
2022-09-01T02:41:29.664Z,96106.66
2022-09-01T02:44:02.509Z,96106.66
2022-09-01T02:46:31.958Z,96121.81
2022-09-01T02:49:01.009Z,96109.38
2022-09-01T02:51:29.653Z,96103.44
2022-09-01T02:53:58.500Z,96057.03
2022-09-01T02:56:29.076Z,96096.97
2022-09-01T02:58:57.518Z,96107.50
2022-09-01T03:01:29.739Z,96102.38
2022-09-01T03:04:00.491Z,96092.16
2022-09-01T03:06:30.918Z,96075.16
2022-09-01T03:09:01.019Z,96103.47
2022-09-01T03:11:35.304Z,96100.00
2022-09-01T03:14:05.296Z,96096.72
2022-09-01T03:16:34.065Z,96100.25
2022-09-01T03:19:04.331Z,95986.97
2022-09-01T03:21:33.283Z,96096.50
2022-09-01T03:24:03.926Z,96092.19
2022-09-01T03:26:33.912Z,96097.28
2022-09-01T03:29:02.508Z,96091.88
2022-09-01T03:31:32.167Z,96103.50
2022-09-01T03:34:01.497Z,96091.66
2022-09-01T03:36:31.132Z,96100.31
2022-09-01T03:38:59.614Z,96090.03
2022-09-01T03:41:30.423Z,96101.38
2022-09-01T03:44:01.224Z,96103.28
2022-09-01T03:46:36.336Z,96103.28
2022-09-01T03:49:07.690Z,96100.88
2022-09-01T03:51:39.398Z,96095.25
2022-09-01T03:54:08.578Z,96056.09
2022-09-01T03:56:39.230Z,96094.69
2022-09-01T03:59:17.300Z,96101.47
2022-09-01T04:01:47.261Z,96059.38
2022-09-01T04:04:16.827Z,96099.88
2022-09-01T04:06:49.251Z,96081.53
2022-09-01T04:09:17.681Z,96100.41
2022-09-01T04:11:48.597Z,96056.66
2022-09-01T04:14:18.786Z,96102.06
2022-09-01T04:17:05.143Z,96100.44
2022-09-01T04:19:37.182Z,96100.47
2022-09-01T04:22:08.082Z,96098.81
2022-09-01T04:24:36.608Z,96105.88
2022-09-01T04:27:07.817Z,96095.84
2022-09-01T04:29:38.511Z,96097.19
2022-09-01T04:32:10.172Z,96028.09
2022-09-01T04:34:41.929Z,96100.16
2022-09-01T04:37:15.237Z,96083.16
2022-09-01T04:39:52.487Z,96085.03
2022-09-01T04:42:24.455Z,96096.94
2022-09-01T04:44:57.948Z,96093.94
2022-09-01T04:47:35.553Z,96089.34
2022-09-01T04:50:13.180Z,96054.00
2022-09-01T04:52:42.451Z,96099.88
2022-09-01T04:55:18.088Z,96083.16
2022-09-01T04:57:49.791Z,96099.09
2022-09-01T05:00:25.124Z,96103.13
2022-09-01T05:02:55.304Z,96089.13
2022-09-01T05:05:25.055Z,96105.81
2022-09-01T05:07:55.698Z,96103.13
2022-09-01T05:10:30.281Z,96065.88
2022-09-01T05:12:58.934Z,96103.41
2022-09-01T05:15:31.193Z,96112.03
2022-09-01T05:18:00.022Z,96110.69
2022-09-01T05:20:30.650Z,96117.19
2022-09-01T05:22:59.060Z,96105.81
2022-09-01T05:25:27.588Z,96116.38
2022-09-01T05:27:56.847Z,96023.25
2022-09-01T05:30:28.831Z,96113.13
2022-09-01T05:32:58.675Z,96116.09
2022-09-01T05:35:32.397Z,96095.84
2022-09-01T05:38:01.504Z,96121.50
2022-09-01T05:40:30.157Z,96123.66
2022-09-01T05:42:59.691Z,96125.56
2022-09-01T05:45:36.455Z,96129.06
2022-09-01T05:48:23.850Z,96125.28
2022-09-01T05:50:56.415Z,96135.56
2022-09-01T05:53:25.527Z,96115.28
2022-09-01T05:55:57.758Z,96119.31
2022-09-01T05:59:22.466Z,96118.78
2022-09-01T06:01:22.402Z,96099.84
2022-09-01T06:03:55.091Z,96118.47
2022-09-01T06:06:24.763Z,96113.31
2022-09-01T06:08:59.087Z,96124.66
2022-09-01T06:11:33.259Z,96101.41
2022-09-01T06:14:02.217Z,96111.63
2022-09-01T06:16:31.722Z,96125.09
2022-09-01T06:19:01.703Z,96099.66
2022-09-01T06:21:31.839Z,96127.22
2022-09-01T06:24:01.063Z,96126.09
2022-09-01T06:26:32.557Z,96132.56
2022-09-01T06:29:05.281Z,96120.59
2022-09-01T06:31:39.436Z,96126.06
2022-09-01T06:34:18.181Z,96129.59
2022-09-01T06:36:48.748Z,96132.53
2022-09-01T06:39:21.143Z,96133.59
2022-09-01T06:41:53.304Z,96141.16
2022-09-01T06:44:23.347Z,96134.88
2022-09-01T06:46:53.337Z,96114.16
2022-09-01T06:49:32.681Z,96134.28
2022-09-01T06:52:01.557Z,96135.59
2022-09-01T06:54:34.884Z,96140.69
2022-09-01T06:59:54.349Z,96149.81
2022-09-01T07:02:26.564Z,96091.88
2022-09-01T07:04:57.267Z,96141.44
2022-09-01T07:10:21.243Z,96140.31
2022-09-01T07:13:07.049Z,96141.34
2022-09-01T07:18:30.988Z,96142.91
2022-09-01T07:21:04.538Z,96138.53
2022-09-01T07:24:07.557Z,96137.69
2022-09-01T07:26:29.583Z,96065.41
2022-09-01T07:29:07.818Z,96013.41
2022-09-01T07:34:40.297Z,96152.41
2022-09-01T07:58:20.589Z,96151.59
2022-09-01T08:00:51.534Z,96165.13
2022-09-01T08:03:22.633Z,96071.31
2022-09-01T08:05:55.950Z,96122.16
2022-09-01T08:08:28.759Z,96169.22
2022-09-01T08:17:33.056Z,95828.88
2022-09-01T08:23:59.220Z,96160.00
2022-09-01T08:26:29.024Z,96163.44
2022-09-01T08:28:57.569Z,96163.41
2022-09-01T08:31:31.378Z,95944.31
2022-09-01T08:34:01.376Z,96157.13
2022-09-01T08:36:32.727Z,96163.75
2022-09-01T08:39:01.526Z,96163.69
2022-09-01T08:41:46.415Z,96163.59
2022-09-01T08:44:26.719Z,96165.47
2022-09-01T08:46:59.787Z,96141.44
2022-09-01T08:49:30.834Z,96154.66
2022-09-01T08:52:07.416Z,96131.47
2022-09-01T08:54:44.426Z,96114.94
2022-09-01T08:57:19.162Z,96163.03
2022-09-01T08:59:47.875Z,96162.72
2022-09-01T09:02:41.517Z,96151.84
2022-09-01T09:05:30.039Z,96130.34
2022-09-01T09:08:13.263Z,96168.03
2022-09-01T09:10:50.069Z,96165.09
2022-09-01T09:13:27.410Z,96166.63
2022-09-01T09:16:08.444Z,96172.78
2022-09-01T09:18:54.721Z,96176.31
2022-09-01T09:21:30.487Z,96167.34
2022-09-01T09:24:03.999Z,96147.09
2022-09-01T09:26:48.061Z,96164.09
2022-09-01T09:29:16.590Z,96153.44
2022-09-01T09:31:50.472Z,96187.31
2022-09-01T09:34:34.668Z,96154.75
2022-09-01T09:37:18.590Z,96156.06
2022-09-01T09:39:47.874Z,96162.06
2022-09-01T09:42:19.569Z,96156.53
2022-09-01T09:44:53.223Z,96153.81
2022-09-01T09:47:43.542Z,96150.16
2022-09-01T09:50:23.532Z,96099.25
2022-09-01T09:52:56.054Z,96149.94
2022-09-01T09:55:30.503Z,96154.59
2022-09-01T09:58:02.591Z,96148.56
2022-09-01T10:00:34.586Z,96149.84
2022-09-01T10:03:08.776Z,96155.47
2022-09-01T10:05:44.364Z,96150.50
2022-09-01T10:08:17.511Z,96125.16
2022-09-01T10:10:57.814Z,96139.28
2022-09-01T10:13:29.329Z,96148.16
2022-09-01T10:16:03.699Z,96145.84
2022-09-01T10:18:39.414Z,96074.28
2022-09-01T10:21:13.511Z,96146.13
2022-09-01T10:23:45.082Z,96145.72
2022-09-01T10:26:18.898Z,96133.16
2022-09-01T10:28:53.711Z,96149.25
2022-09-01T10:31:23.859Z,96131.00
2022-09-01T10:33:52.788Z,96139.44
2022-09-01T10:36:24.683Z,96161.41
2022-09-01T10:39:04.420Z,96155.75
2022-09-01T10:41:59.581Z,96146.66
2022-09-01T10:44:35.710Z,96139.50
2022-09-01T10:47:13.636Z,96147.94
2022-09-01T10:50:07.463Z,96144.25
2022-09-01T10:53:01.003Z,96126.72
2022-09-01T10:55:48.400Z,96127.38
2022-09-01T11:02:27.590Z,96132.56
2022-09-01T11:05:20.621Z,96135.59
2022-09-01T11:08:15.041Z,96120.97
2022-09-01T11:10:52.504Z,96046.59
2022-09-01T11:13:36.879Z,96152.69
2022-09-01T11:16:49.594Z,96139.00
2022-09-01T11:19:39.476Z,96140.44
2022-09-01T11:22:29.033Z,96139.50
2022-09-01T11:25:40.307Z,96138.94
2022-09-01T11:28:48.511Z,96131.97
2022-09-01T11:31:41.884Z,96128.41
2022-09-01T11:34:14.790Z,96131.75
2022-09-01T11:36:56.670Z,96058.72
2022-09-01T11:39:43.331Z,96130.53
2022-09-01T11:42:19.381Z,96133.22
2022-09-01T11:44:54.026Z,96136.91
2022-09-01T11:47:28.969Z,96132.22
2022-09-01T11:49:59.810Z,96123.28
2022-09-01T11:52:31.871Z,96120.41
2022-09-01T11:55:01.085Z,96120.38
2022-09-01T11:57:32.453Z,96121.91
2022-09-01T12:00:03.246Z,96123.06
2022-09-01T12:02:36.667Z,95982.69
2022-09-01T12:05:26.925Z,96123.09
2022-09-01T12:07:55.852Z,96115.50
2022-09-01T12:10:32.085Z,96102.59
2022-09-01T12:13:06.166Z,96115.97
2022-09-01T12:15:46.440Z,96112.91
2022-09-01T12:18:28.572Z,96115.03
2022-09-01T12:20:59.897Z,96099.94
2022-09-01T12:23:30.648Z,96107.78
2022-09-01T12:26:02.348Z,96096.53
2022-09-01T12:28:33.920Z,96029.31
2022-09-01T12:31:07.661Z,96080.78
2022-09-01T12:33:38.364Z,96050.38
2022-09-01T12:36:25.243Z,96101.50
2022-09-01T12:38:54.675Z,96111.00
2022-09-01T12:41:29.097Z,96105.22
2022-09-01T12:43:57.901Z,96087.59
2022-09-01T12:46:46.434Z,96101.50
2022-09-01T12:49:21.956Z,96094.09
2022-09-01T12:51:51.182Z,96047.94
2022-09-01T12:54:27.140Z,96096.22
2022-09-01T12:56:55.963Z,96084.94
2022-09-01T12:59:36.245Z,96090.56
2022-09-01T13:02:28.437Z,96082.88
2022-09-01T13:05:27.158Z,96082.06
2022-09-01T13:08:01.791Z,96085.59
2022-09-01T13:10:39.993Z,96081.41
2022-09-01T13:13:10.016Z,96082.84
2022-09-01T13:15:40.795Z,96081.41
2022-09-01T13:18:09.284Z,96075.28
2022-09-01T13:20:39.548Z,96075.44
2022-09-01T13:23:07.953Z,96071.13
2022-09-01T13:25:36.565Z,96072.72
2022-09-01T13:28:06.306Z,96035.25
2022-09-01T13:30:36.321Z,96080.44
2022-09-01T13:33:20.999Z,96068.22
2022-09-01T13:35:53.479Z,96060.34
2022-09-01T13:38:23.432Z,96055.50
2022-09-01T13:40:53.169Z,96040.53
2022-09-01T13:43:27.296Z,96019.31
2022-09-01T13:45:56.003Z,96057.75
2022-09-01T13:49:01.770Z,96049.03
2022-09-01T13:51:18.189Z,96046.63
2022-09-01T13:53:47.656Z,96063.34
2022-09-01T13:56:16.404Z,96051.72
2022-09-01T13:58:44.903Z,96046.75
2022-09-01T14:01:17.017Z,96058.16
2022-09-01T14:03:50.041Z,96050.41
2022-09-01T14:06:22.554Z,96045.03
2022-09-01T14:08:51.035Z,95994.91
2022-09-01T14:11:20.240Z,96043.72
2022-09-01T14:13:48.789Z,96046.78
2022-09-01T14:16:17.770Z,96022.91
2022-09-01T14:18:46.985Z,96047.22
2022-09-01T14:21:17.519Z,96047.13
2022-09-01T14:23:47.567Z,96045.63
2022-09-01T14:26:18.276Z,96034.97
2022-09-01T14:28:48.772Z,96033.13
2022-09-01T14:31:19.403Z,96037.94
2022-09-01T14:33:49.305Z,96037.28
2022-09-01T14:36:23.531Z,96037.66
2022-09-01T14:38:55.047Z,95998.06
2022-09-01T14:41:26.467Z,96037.22
2022-09-01T14:44:03.083Z,96042.69
2022-09-01T14:46:34.577Z,96048.81
2022-09-01T14:49:04.184Z,96043.47
2022-09-01T14:54:24.536Z,96006.75
2022-09-01T14:59:42.809Z,96035.91
2022-09-01T15:02:11.805Z,96043.38
2022-09-01T15:04:40.512Z,96010.81
2022-09-01T15:07:09.568Z,96019.84
2022-09-01T15:09:39.484Z,96026.50
2022-09-01T15:12:09.722Z,95983.22
2022-09-01T15:14:38.485Z,96023.22
2022-09-01T15:17:07.415Z,96019.09
2022-09-01T15:19:36.565Z,96006.72
2022-09-01T15:22:07.356Z,96015.75
2022-09-01T15:24:35.925Z,96013.19
2022-09-01T15:27:06.996Z,96020.25
2022-09-01T15:29:37.007Z,96008.84
2022-09-01T15:32:05.711Z,95977.38
2022-09-01T15:34:34.317Z,95804.38
2022-09-01T15:37:02.937Z,95997.44
2022-09-01T15:39:31.564Z,96014.66
2022-09-01T15:42:08.563Z,96008.22
2022-09-01T15:44:37.225Z,96007.41
2022-09-01T15:47:05.919Z,96008.53
2022-09-01T15:49:34.426Z,96012.09
2022-09-01T15:52:03.020Z,96011.28
2022-09-01T15:54:31.716Z,95894.72
2022-09-01T15:57:00.335Z,96012.56
2022-09-01T15:59:30.634Z,95799.41
2022-09-01T16:01:59.383Z,96000.66
2022-09-01T16:04:28.307Z,96002.25
2022-09-01T16:06:57.073Z,95996.13
2022-09-01T16:09:26.947Z,96001.31
2022-09-01T16:11:55.988Z,96001.31
2022-09-01T16:14:24.969Z,95876.88
2022-09-01T16:17:04.308Z,96006.63
2022-09-01T16:19:48.363Z,96005.81
2022-09-01T16:22:24.076Z,96001.00
2022-09-01T16:24:56.312Z,96003.09
2022-09-01T16:27:32.217Z,95953.34
2022-09-01T16:30:04.798Z,95999.97
2022-09-01T16:32:34.761Z,95996.13
2022-09-01T16:35:05.596Z,95999.97
2022-09-01T16:37:45.629Z,95984.53
2022-09-01T16:40:31.486Z,95995.78
2022-09-01T16:43:08.087Z,95995.78
2022-09-01T16:45:46.564Z,96004.31
2022-09-01T16:48:23.164Z,95960.50
2022-09-01T16:50:57.607Z,95973.06
2022-09-01T16:53:40.140Z,95967.09
2022-09-01T16:56:12.621Z,96003.94
2022-09-01T16:58:49.361Z,96004.38
2022-09-01T17:01:31.205Z,95996.34
2022-09-01T17:04:17.040Z,96000.19
2022-09-01T17:06:58.524Z,96001.44
2022-09-01T17:09:33.762Z,96001.44
2022-09-01T17:12:15.937Z,95996.63
2022-09-01T17:14:49.691Z,96001.72
2022-09-01T17:17:26.632Z,95999.75
2022-09-01T17:19:57.366Z,96000.38
2022-09-01T17:22:27.404Z,95962.41
2022-09-01T17:31:17.407Z,95875.81
2022-09-01T17:34:07.111Z,96004.78
2022-09-01T17:36:48.658Z,95985.09
2022-09-01T17:39:29.484Z,96001.47
2022-09-01T17:42:01.154Z,95975.72
2022-09-01T17:44:36.906Z,96022.66
2022-09-01T17:47:13.295Z,95977.50
2022-09-01T17:49:52.143Z,96017.47
2022-09-01T17:52:34.471Z,96015.66
2022-09-01T17:55:09.311Z,96013.88
2022-09-01T17:57:44.168Z,96016.72
2022-09-01T18:00:23.680Z,96014.41
2022-09-01T18:03:15.324Z,95988.44
2022-09-01T18:05:47.238Z,96018.00
2022-09-01T18:08:33.475Z,96002.25
2022-09-01T18:11:09.084Z,95948.38
2022-09-01T18:13:53.828Z,96020.88
2022-09-01T18:20:11.292Z,95902.81
2022-09-01T18:22:47.058Z,96022.97
2022-09-01T18:25:21.790Z,96020.38
2022-09-01T18:27:51.805Z,96022.69
2022-09-01T18:30:42.728Z,96021.19
2022-09-01T18:33:26.910Z,96017.03
2022-09-01T18:36:07.922Z,95998.00
2022-09-01T18:38:45.144Z,96028.84
2022-09-01T18:41:45.613Z,96035.81
2022-09-01T18:44:31.673Z,96043.56
2022-09-01T18:47:05.784Z,96000.22
2022-09-01T18:49:48.344Z,95980.28
2022-09-01T18:52:25.495Z,96031.66
2022-09-01T18:55:05.925Z,96011.72
2022-09-01T18:57:40.251Z,96010.19
2022-09-01T19:00:17.880Z,96001.56
2022-09-01T19:03:05.231Z,96028.84
2022-09-01T19:05:55.685Z,96041.13
2022-09-01T19:08:44.547Z,96014.13
2022-09-01T19:11:19.784Z,95958.78
2022-09-01T19:14:06.179Z,96059.25
2022-09-01T19:16:50.779Z,96048.19
2022-09-01T19:19:35.289Z,96044.44
2022-09-01T19:22:05.885Z,96051.28
2022-09-01T19:24:40.665Z,96065.97
2022-09-01T19:27:13.911Z,96051.88
2022-09-01T19:29:53.533Z,95946.00
2022-09-01T19:32:24.369Z,96053.34
2022-09-01T19:34:58.207Z,96009.59
2022-09-01T19:37:28.834Z,96049.63
2022-09-01T19:39:58.642Z,95987.94
2022-09-01T19:42:35.890Z,96035.72
2022-09-01T19:45:14.349Z,96058.47
2022-09-01T19:47:50.151Z,95991.84
2022-09-01T19:50:24.520Z,96058.84
2022-09-01T19:52:58.287Z,96064.63
2022-09-01T19:55:31.726Z,96059.06
2022-09-01T19:58:06.697Z,96001.50
2022-09-01T20:00:51.543Z,96066.03
2022-09-01T20:03:28.396Z,96092.31
2022-09-01T20:06:02.541Z,95984.00
2022-09-01T20:08:38.303Z,96043.69
2022-09-01T20:11:13.896Z,96054.69
2022-09-01T20:14:17.872Z,96068.56
2022-09-01T20:16:53.157Z,96051.28
2022-09-01T20:19:31.826Z,96048.28
2022-09-01T20:22:14.502Z,96069.28
2022-09-01T20:24:45.291Z,96038.13
2022-09-01T20:27:31.430Z,95995.00
2022-09-01T20:30:11.724Z,96062.44
2022-09-01T20:35:25.405Z,96017.25
2022-09-01T20:38:02.338Z,96065.25
2022-09-01T20:40:35.645Z,96062.63
2022-09-01T20:43:14.230Z,96056.97
2022-09-01T20:45:42.962Z,96062.44
2022-09-01T20:48:16.093Z,96063.31
2022-09-01T20:50:53.211Z,96060.06
2022-09-01T20:53:35.684Z,96051.47
2022-09-01T20:56:10.951Z,95934.81
2022-09-01T20:58:45.605Z,96025.19
2022-09-01T21:01:22.363Z,95990.19
2022-09-01T21:04:06.444Z,96020.53
2022-09-01T21:06:43.542Z,96049.16
2022-09-01T21:09:17.692Z,96098.16
2022-09-01T21:11:53.867Z,96051.34
2022-09-01T21:14:35.287Z,96039.31
2022-09-01T21:17:12.900Z,96060.63
2022-09-01T21:19:50.217Z,96053.38
2022-09-01T21:22:22.172Z,96021.38
2022-09-01T21:24:51.262Z,96052.13
2022-09-01T21:27:23.814Z,96051.66
2022-09-01T21:29:58.384Z,96054.41
2022-09-01T21:32:29.250Z,96053.28
2022-09-01T21:34:59.884Z,96040.84
2022-09-01T21:37:29.616Z,96044.09
2022-09-01T21:39:58.776Z,96055.47
2022-09-01T21:42:29.960Z,96048.44
2022-09-01T21:44:59.935Z,96041.41
2022-09-01T21:47:29.103Z,96036.53
2022-09-01T21:49:58.998Z,96032.81
2022-09-01T21:52:27.743Z,96040.13
2022-09-01T21:54:56.228Z,95987.28
2022-09-01T21:57:25.082Z,96035.00
2022-09-01T21:59:53.555Z,96038.03
2022-09-01T22:02:22.153Z,95813.88
2022-09-01T22:04:58.734Z,96031.53
2022-09-01T22:07:27.280Z,96036.69
2022-09-01T22:09:57.912Z,96025.59
2022-09-01T22:12:26.550Z,96030.22
2022-09-01T22:14:54.937Z,96024.75
2022-09-01T22:17:23.635Z,96022.84
2022-09-01T22:19:53.131Z,96029.59
2022-09-01T22:22:23.040Z,96025.00
2022-09-01T22:24:51.599Z,96023.38
2022-09-01T22:27:20.099Z,95999.94
2022-09-01T22:29:48.579Z,96026.31
2022-09-01T22:32:17.035Z,96029.03
2022-09-01T22:34:45.687Z,95968.91
2022-09-01T22:37:14.391Z,96021.41
2022-09-01T22:39:44.374Z,96022.44
2022-09-01T22:42:12.876Z,96034.38
2022-09-01T22:44:41.659Z,96024.63
2022-09-01T22:47:10.160Z,96019.72
2022-09-01T22:49:38.874Z,96023.00
2022-09-01T22:52:07.409Z,95930.25
2022-09-01T22:54:36.291Z,96008.13
2022-09-01T22:57:06.551Z,96013.19
2022-09-01T22:59:35.382Z,96015.13
2022-09-01T23:02:03.910Z,96014.66
2022-09-01T23:04:33.136Z,95811.63
2022-09-01T23:07:01.947Z,96014.41
2022-09-01T23:09:31.260Z,96013.34
2022-09-01T23:11:59.732Z,96021.78
2022-09-01T23:14:30.307Z,95986.97
2022-09-01T23:16:59.041Z,95980.84
2022-09-01T23:19:27.520Z,96005.84
2022-09-01T23:21:56.259Z,96000.44
2022-09-01T23:24:24.917Z,96003.66
2022-09-01T23:26:53.395Z,95934.66
2022-09-01T23:29:22.519Z,95985.59
2022-09-01T23:31:52.591Z,96000.44
2022-09-01T23:34:21.164Z,95995.59
2022-09-01T23:36:49.948Z,95997.22
2022-09-01T23:39:18.331Z,95971.63
2022-09-01T23:41:48.094Z,95995.06
2022-09-01T23:44:17.124Z,95989.63
2022-09-01T23:46:47.788Z,95984.56
2022-09-01T23:49:19.557Z,95988.09
2022-09-01T23:51:49.584Z,95994.63
2022-09-01T23:54:18.116Z,95987.06
2022-09-01T23:56:46.771Z,95990.41
2022-09-01T23:59:15.680Z,95986.13
